Time;durP1;ratioP1;P1;durP2;ratioP2;P2;SDS_P1;SDS_P2;PMS_P1;PMS_P2;Temp;Humidity;BMP_temperature;BMP_pressure;BME280_temperature;BME280_humidity;BME280_pressure;Samples;Min_cycle;Max_cycle;Signal;HPM_P1;HPM_P2
2021/07/15 00:00:00;;;;;;;0.28;0.28;;;16.50;99.90;;;;;;5090159;28;20246;-72
2021/07/15 00:02:26;;;;;;;1.35;0.30;;;16.50;99.90;;;;;;5089905;28;20196;-72
2021/07/15 00:04:52;;;;;;;1.45;0.82;;;16.40;99.90;;;;;;5090118;28;20175;-72
2021/07/15 00:07:18;;;;;;;0.13;0.13;;;16.30;99.90;;;;;;5089967;28;20353;-72
2021/07/15 00:09:45;;;;;;;0.20;0.20;;;16.30;99.90;;;;;;5088657;28;20218;-72
2021/07/15 00:12:13;;;;;;;0.15;0.15;;;16.30;99.90;;;;;;5089901;28;20569;-72
2021/07/15 00:14:39;;;;;;;0.10;0.10;;;16.30;99.90;;;;;;5089866;28;20153;-72
2021/07/15 00:17:06;;;;;;;0.57;0.57;;;16.20;99.90;;;;;;5089863;28;20258;-72
2021/07/15 00:19:33;;;;;;;0.35;0.35;;;16.20;99.90;;;;;;5089749;28;20225;-72
2021/07/15 00:21:59;;;;;;;1.55;0.82;;;16.20;99.90;;;;;;5089731;28;20196;-73
2021/07/15 00:24:27;;;;;;;0.52;0.52;;;16.00;99.90;;;;;;5089753;28;20537;-72
2021/07/15 00:26:54;;;;;;;0.40;0.40;;;16.10;99.90;;;;;;5072111;28;20313;-72
2021/07/15 00:29:21;;;;;;;0.10;0.10;;;16.10;99.90;;;;;;5072316;28;20518;-72
2021/07/15 00:31:47;;;;;;;0.10;0.10;;;16.20;99.90;;;;;;5090196;28;20311;-72
2021/07/15 00:34:15;;;;;;;0.10;0.10;;;16.40;99.90;;;;;;5072098;28;20176;-72
2021/07/15 00:36:41;;;;;;;0.10;0.10;;;16.50;99.90;;;;;;5090015;28;20162;-72
2021/07/15 00:39:08;;;;;;;0.20;0.20;;;16.40;99.90;;;;;;5071984;28;20172;-72
2021/07/15 00:41:35;;;;;;;0.47;0.38;;;16.50;99.90;;;;;;5071926;28;20255;-72
2021/07/15 00:44:02;;;;;;;0.20;0.10;;;16.50;99.90;;;;;;5090071;28;20156;-72
2021/07/15 00:46:28;;;;;;;0.30;0.30;;;16.50;99.90;;;;;;5089760;28;20227;-72
2021/07/15 00:48:53;;;;;;;0.73;0.73;;;16.60;99.90;;;;;;5089888;28;20160;-71
2021/07/15 00:51:21;;;;;;;0.70;0.47;;;16.50;99.90;;;;;;5071553;28;20280;-71
2021/07/15 00:53:47;;;;;;;0.32;0.32;;;16.30;99.90;;;;;;5071713;28;20187;-71
2021/07/15 00:56:13;;;;;;;0.82;0.82;;;16.20;99.90;;;;;;5089719;28;20172;-72
2021/07/15 00:58:39;;;;;;;0.63;0.30;;;16.20;99.90;;;;;;5089664;28;20164;-71
2021/07/15 01:01:09;;;;;;;0.50;0.50;;;16.20;99.90;;;;;;5089591;28;20195;-71
2021/07/15 01:03:35;;;;;;;0.40;0.40;;;16.50;99.90;;;;;;5089584;28;20167;-73
2021/07/15 01:06:02;;;;;;;0.70;0.50;;;16.60;99.90;;;;;;5071560;28;20239;-73
2021/07/15 01:08:28;;;;;;;0.50;0.50;;;16.60;99.90;;;;;;5089485;28;20160;-72
2021/07/15 01:11:19;;;;;;;0.08;0.08;;;16.70;99.90;;;;;;5089137;28;20211;-72
2021/07/15 01:13:54;;;;;;;0.82;0.82;;;16.80;99.90;;;;;;5078384;28;20264;-71
2021/07/15 01:16:53;;;;;;;0.20;0.20;;;16.80;99.90;;;;;;5089377;28;20159;-73
2021/07/15 01:19:38;;;;;;;0.20;0.20;;;17.00;99.90;;;;;;5089323;28;20160;-72
2021/07/15 01:22:13;;;;;;;0.40;0.40;;;17.20;99.90;;;;;;5088698;28;20243;-71
2021/07/15 01:25:09;;;;;;;0.38;0.38;;;17.20;99.90;;;;;;5089199;28;20178;-73
2021/07/15 01:27:47;;;;;;;0.20;0.20;;;17.00;99.90;;;;;;5063307;28;20195;-73
2021/07/15 01:30:20;;;;;;;0.10;0.10;;;16.90;99.90;;;;;;5069000;28;20188;-73
2021/07/15 01:33:23;;;;;;;0.10;0.10;;;17.00;99.90;;;;;;5069101;28;20172;-73
2021/07/15 01:35:59;;;;;;;0.10;0.10;;;17.10;99.90;;;;;;5068958;28;20153;-72
2021/07/15 01:38:37;;;;;;;0.20;0.20;;;17.30;99.90;;;;;;5068962;28;20157;-72
2021/07/15 01:41:14;;;;;;;0.30;0.30;;;17.80;99.90;;;;;;5068821;28;20257;-72
2021/07/15 01:43:43;;;;;;;0.10;0.10;;;18.00;99.90;;;;;;5068884;28;20161;-72
2021/07/15 01:46:12;;;;;;;0.20;0.20;;;18.20;99.90;;;;;;5068641;28;20223;-73
2021/07/15 01:48:40;;;;;;;2.35;0.10;;;18.20;99.90;;;;;;5068747;28;20157;-72
2021/07/15 01:51:07;;;;;;;0.20;0.20;;;18.20;99.90;;;;;;5068409;28;20251;-72
2021/07/15 01:53:33;;;;;;;0.00;0.00;;;18.10;99.90;;;;;;5068714;28;20179;-73
2021/07/15 01:56:01;;;;;;;0.22;0.22;;;18.00;99.90;;;;;;5068552;28;20165;-72
2021/07/15 01:58:32;;;;;;;0.10;0.10;;;18.20;99.90;;;;;;5068609;28;20533;-73
2021/07/15 02:01:00;;;;;;;0.10;0.10;;;18.00;99.90;;;;;;5068435;28;20193;-73
2021/07/15 02:03:28;;;;;;;0.22;0.22;;;17.70;99.90;;;;;;5068492;28;20161;-73
2021/07/15 02:05:55;;;;;;;0.22;0.10;;;17.60;99.90;;;;;;5068486;28;20176;-72
2021/07/15 02:08:23;;;;;;;0.25;0.25;;;17.60;99.90;;;;;;5068357;28;20157;-72
2021/07/15 02:10:50;;;;;;;0.40;0.40;;;17.50;99.90;;;;;;5062656;28;20213;-73
2021/07/15 02:13:16;;;;;;;0.55;0.55;;;17.40;99.90;;;;;;5108775;28;20164;-73
2021/07/15 02:15:44;;;;;;;0.10;0.10;;;17.30;99.90;;;;;;5107087;28;20198;-73
2021/07/15 02:18:20;;;;;;;0.00;0.00;;;17.20;99.90;;;;;;5108676;28;20161;-72
2021/07/15 02:20:51;;;;;;;0.50;0.50;;;17.10;99.90;;;;;;5108430;28;20197;-73
2021/07/15 02:23:19;;;;;;;1.00;0.35;;;17.10;99.90;;;;;;5108655;28;20161;-73
2021/07/15 02:25:49;;;;;;;0.45;0.43;;;17.10;99.90;;;;;;5108625;28;20151;-72
2021/07/15 02:28:16;;;;;;;0.00;0.00;;;17.00;99.90;;;;;;5108562;28;20168;-70
2021/07/15 02:30:48;;;;;;;0.13;0.13;;;17.00;99.90;;;;;;5108274;28;20229;-72
2021/07/15 02:33:17;;;;;;;0.22;0.22;;;17.00;99.90;;;;;;5109405;28;20247;-72
2021/07/15 02:35:52;;;;;;;0.10;0.10;;;17.00;99.90;;;;;;5111394;28;20171;-71
2021/07/15 02:38:22;;;;;;;0.20;0.20;;;17.00;99.90;;;;;;5112717;28;20212;-71
2021/07/15 02:40:49;;;;;;;0.10;0.10;;;17.10;99.90;;;;;;5112618;28;20221;-71
2021/07/15 02:43:16;;;;;;;0.20;0.20;;;17.10;99.90;;;;;;5094379;28;20205;-72
2021/07/15 02:45:42;;;;;;;0.13;0.13;;;17.10;99.90;;;;;;5112327;28;20218;-72
2021/07/15 02:48:08;;;;;;;0.30;0.30;;;17.10;99.90;;;;;;5112439;28;20158;-73
2021/07/15 02:50:34;;;;;;;0.20;0.20;;;17.20;99.90;;;;;;5112232;28;20205;-73
2021/07/15 02:53:03;;;;;;;0.30;0.30;;;17.20;99.90;;;;;;5112349;28;20156;-73
2021/07/15 02:55:30;;;;;;;0.43;0.43;;;17.20;99.90;;;;;;5112286;28;20220;-73
2021/07/15 02:58:19;;;;;;;0.10;0.10;;;17.20;99.90;;;;;;5112207;28;20152;-73
2021/07/15 03:00:54;;;;;;;0.20;0.20;;;17.40;99.90;;;;;;5111469;28;20207;-73
2021/07/15 03:03:38;;;;;;;0.05;0.05;;;17.40;99.90;;;;;;5111656;28;20151;-73
2021/07/15 03:06:13;;;;;;;0.10;0.10;;;17.40;99.90;;;;;;5111399;28;20159;-73
2021/07/15 03:08:52;;;;;;;0.50;0.25;;;17.40;99.90;;;;;;5110045;28;20178;-73
2021/07/15 03:11:19;;;;;;;0.10;0.10;;;17.40;99.90;;;;;;5110945;28;20230;-73
2021/07/15 03:13:46;;;;;;;0.38;0.38;;;17.40;99.90;;;;;;5093018;28;20186;-73
2021/07/15 03:16:14;;;;;;;0.45;0.45;;;17.40;99.90;;;;;;5111753;28;20175;-73
2021/07/15 03:18:42;;;;;;;0.10;0.10;;;17.30;99.90;;;;;;5111710;28;20152;-73
2021/07/15 03:21:09;;;;;;;0.30;0.30;;;17.30;99.90;;;;;;5111371;28;20191;-73
2021/07/15 03:23:38;;;;;;;5.07;0.70;;;17.30;99.90;;;;;;5111675;28;20155;-73
2021/07/15 03:26:06;;;;;;;0.30;0.30;;;17.40;99.90;;;;;;5111625;28;20166;-71
2021/07/15 03:28:36;;;;;;;0.35;0.35;;;17.40;99.90;;;;;;5111376;28;20166;-73
2021/07/15 03:31:11;;;;;;;0.30;0.22;;;17.50;99.90;;;;;;5110809;28;20210;-72
2021/07/15 03:33:39;;;;;;;0.15;0.15;;;17.60;99.90;;;;;;5112033;28;20173;-73
2021/07/15 03:36:09;;;;;;;0.28;0.28;;;17.60;99.90;;;;;;5111965;28;20160;-73
2021/07/15 03:38:39;;;;;;;0.00;0.00;;;17.70;99.90;;;;;;5110635;28;20186;-72
2021/07/15 03:41:06;;;;;;;0.17;0.17;;;17.80;99.90;;;;;;5111870;28;20274;-72
2021/07/15 03:43:37;;;;;;;0.45;0.45;;;17.90;99.90;;;;;;5111847;28;20159;-73
2021/07/15 03:46:03;;;;;;;0.10;0.10;;;17.80;99.90;;;;;;5111555;28;20219;-72
2021/07/15 03:48:31;;;;;;;0.30;0.30;;;17.70;99.90;;;;;;5093116;28;20179;-73
2021/07/15 03:51:03;;;;;;;0.20;0.20;;;17.60;99.90;;;;;;5111620;28;20206;-73
2021/07/15 03:53:30;;;;;;;0.13;0.13;;;17.50;99.90;;;;;;5110170;28;20190;-73
2021/07/15 03:55:58;;;;;;;0.13;0.13;;;17.40;99.90;;;;;;5111724;28;20159;-73
2021/07/15 03:58:26;;;;;;;0.10;0.10;;;17.30;99.90;;;;;;5110320;28;20171;-73
2021/07/15 04:00:57;;;;;;;0.10;0.10;;;17.20;99.90;;;;;;5111463;28;20212;-72
2021/07/15 04:03:24;;;;;;;0.20;0.20;;;17.20;99.90;;;;;;5111586;28;20155;-72
2021/07/15 04:05:52;;;;;;;0.63;0.63;;;17.20;99.90;;;;;;5111354;28;20159;-73
2021/07/15 04:08:20;;;;;;;0.10;0.10;;;17.20;99.90;;;;;;5111275;28;20152;-71
2021/07/15 04:10:50;;;;;;;0.22;0.13;;;17.30;99.90;;;;;;5109798;28;20207;-73
2021/07/15 04:13:17;;;;;;;2.45;0.57;;;17.50;99.90;;;;;;5109900;28;20175;-73
2021/07/15 04:15:55;;;;;;;0.10;0.10;;;18.00;99.90;;;;;;5111339;28;20160;-71
2021/07/15 04:18:33;;;;;;;0.25;0.25;;;18.60;99.90;;;;;;5111113;28;20170;-73
2021/07/15 04:21:00;;;;;;;1.95;1.48;;;19.10;99.90;;;;;;5111037;28;20195;-73
2021/07/15 04:23:29;;;;;;;0.10;0.10;;;19.60;99.90;;;;;;5111114;28;20188;-73
2021/07/15 04:25:56;;;;;;;0.10;0.10;;;20.10;99.90;;;;;;5111216;28;20554;-73
2021/07/15 04:28:24;;;;;;;1.13;0.40;;;20.50;99.90;;;;;;5109727;28;20171;-72
2021/07/15 04:31:01;;;;;;;0.10;0.10;;;21.00;99.90;;;;;;5110666;28;20238;-72
2021/07/15 04:33:29;;;;;;;0.25;0.25;;;21.10;99.90;;;;;;5110971;28;20155;-72
2021/07/15 04:35:56;;;;;;;2.55;0.47;;;20.50;99.90;;;;;;5110837;28;20162;-72
2021/07/15 04:38:23;;;;;;;0.25;0.25;;;20.40;99.90;;;;;;5110695;28;20162;-72
2021/07/15 04:40:50;;;;;;;1.23;0.40;;;20.30;99.90;;;;;;5110686;28;20199;-72
2021/07/15 04:43:19;;;;;;;0.10;0.10;;;20.20;99.90;;;;;;5110540;28;20152;-72
2021/07/15 04:45:47;;;;;;;0.38;0.38;;;20.50;99.90;;;;;;5110684;28;20275;-72
2021/07/15 04:48:17;;;;;;;0.90;0.60;;;20.50;99.90;;;;;;5110590;28;20159;-73
2021/07/15 04:50:43;;;;;;;0.25;0.20;;;20.00;99.90;;;;;;5110452;28;20203;-73
2021/07/15 04:53:14;;;;;;;0.38;0.32;;;19.60;99.90;;;;;;5110473;28;20220;-72
2021/07/15 04:55:41;;;;;;;0.63;0.63;;;19.30;99.90;;;;;;5108443;28;20257;-72
2021/07/15 04:58:09;;;;;;;1.77;0.55;;;18.90;99.90;;;;;;5110415;28;20163;-72
2021/07/15 05:00:37;;;;;;;0.20;0.20;;;19.00;99.90;;;;;;5110216;28;20216;-71
2021/07/15 05:03:18;;;;;;;0.28;0.28;;;19.70;99.90;;;;;;5110310;28;20160;-72
2021/07/15 05:05:44;;;;;;;0.70;0.70;;;19.30;99.90;;;;;;5108929;28;20175;-73
2021/07/15 05:08:09;;;;;;;0.10;0.10;;;18.90;99.90;;;;;;5110177;28;20174;-73
2021/07/15 05:10:35;;;;;;;19.23;1.23;;;19.50;99.90;;;;;;5108781;28;20206;-72
2021/07/15 05:13:02;;;;;;;0.40;0.30;;;20.40;99.90;;;;;;5110138;28;20152;-72
2021/07/15 05:15:28;;;;;;;0.10;0.10;;;20.70;99.90;;;;;;5110064;28;20186;-72
2021/07/15 05:17:54;;;;;;;0.90;0.85;;;21.20;99.90;;;;;;5108471;28;20178;-72
2021/07/15 05:20:20;;;;;;;0.30;0.30;;;21.50;99.90;;;;;;5109699;28;20155;-72
2021/07/15 05:22:46;;;;;;;0.52;0.52;;;21.60;99.90;;;;;;5109921;28;20178;-72
2021/07/15 05:25:12;;;;;;;0.45;0.45;;;21.80;99.90;;;;;;5109738;28;20163;-72
2021/07/15 05:27:38;;;;;;;1.40;0.60;;;22.50;99.90;;;;;;5109813;28;20185;-72
2021/07/15 05:30:06;;;;;;;0.30;0.30;;;22.90;99.90;;;;;;5109347;28;20191;-72
2021/07/15 05:32:32;;;;;;;0.10;0.10;;;23.50;99.90;;;;;;5109779;28;20151;-72
2021/07/15 05:34:58;;;;;;;2.65;0.25;;;23.90;99.90;;;;;;5108336;28;20193;-72
2021/07/15 05:37:24;;;;;;;0.40;0.40;;;23.40;99.90;;;;;;5109594;28;20574;-72
2021/07/15 05:39:50;;;;;;;0.40;0.40;;;23.60;99.90;;;;;;5109586;28;20170;-72
2021/07/15 05:42:16;;;;;;;1.00;1.00;;;24.30;99.90;;;;;;5107962;28;20205;-72
2021/07/15 05:44:42;;;;;;;0.73;0.73;;;25.30;99.90;;;;;;5109265;28;20229;-73
2021/07/15 05:47:09;;;;;;;0.20;0.20;;;25.30;99.90;;;;;;5108009;28;20171;-72
2021/07/15 05:49:39;;;;;;;0.13;0.13;;;24.30;99.90;;;;;;5109380;28;20162;-72
2021/07/15 05:52:08;;;;;;;0.25;0.17;;;24.40;99.90;;;;;;5109289;28;20239;-72
2021/07/15 05:54:35;;;;;;;0.10;0.10;;;24.00;99.90;;;;;;5107914;28;20171;-72
2021/07/15 05:57:01;;;;;;;0.50;0.50;;;24.40;99.90;;;;;;5109418;28;20155;-72
2021/07/15 05:59:27;;;;;;;0.52;0.52;;;25.10;99.90;;;;;;5109407;28;20684;-72
2021/07/15 06:01:53;;;;;;;0.30;0.30;;;25.40;99.90;;;;;;5109212;28;20273;-72
2021/07/15 06:04:19;;;;;;;0.08;0.08;;;26.70;99.90;;;;;;5109146;28;20178;-72
2021/07/15 06:06:45;;;;;;;0.35;0.35;;;27.50;99.90;;;;;;5109167;28;20194;-72
2021/07/15 06:09:11;;;;;;;0.50;0.50;;;28.30;99.90;;;;;;5107819;28;20193;-72
2021/07/15 06:11:37;;;;;;;0.10;0.10;;;28.70;99.90;;;;;;5107516;28;20282;-72
2021/07/15 06:14:03;;;;;;;0.13;0.13;;;29.10;99.90;;;;;;5109073;28;20151;-72
2021/07/15 06:16:29;;;;;;;0.17;0.17;;;28.80;99.90;;;;;;5090431;28;20186;-72
2021/07/15 06:18:55;;;;;;;0.32;0.32;;;28.90;99.90;;;;;;5108311;28;20155;-72
2021/07/15 06:21:21;;;;;;;0.32;0.20;;;28.70;99.90;;;;;;5106936;28;20194;-71
2021/07/15 06:23:47;;;;;;;0.10;0.10;;;29.40;99.90;;;;;;5108260;28;20174;-72
2021/07/15 06:26:13;;;;;;;4.05;0.32;;;28.90;99.90;;;;;;5108423;28;20163;-72
2021/07/15 06:28:39;;;;;;;0.77;0.68;;;28.30;99.90;;;;;;5108240;28;20254;-72
2021/07/15 06:31:05;;;;;;;0.40;0.40;;;27.40;99.90;;;;;;5108095;28;20202;-72
2021/07/15 06:33:32;;;;;;;0.88;0.40;;;27.20;99.90;;;;;;5108033;28;20646;-72
2021/07/15 06:36:00;;;;;;;4.38;0.30;;;27.60;99.90;;;;;;5108294;28;20151;-72
2021/07/15 06:38:46;;;;;;;0.30;0.30;;;27.40;99.90;;;;;;5108167;28;20150;-72
2021/07/15 06:41:11;;;;;;;0.73;0.70;;;26.70;99.90;;;;;;5107678;28;20202;-72
2021/07/15 06:43:39;;;;;;;1.05;0.73;;;27.10;99.90;;;;;;5097027;28;20196;-72
2021/07/15 06:46:06;;;;;;;0.30;0.30;;;28.20;99.90;;;;;;5075793;28;20252;-72
2021/07/15 06:48:32;;;;;;;0.32;0.32;;;27.90;99.90;;;;;;5078084;28;20313;-72
2021/07/15 06:50:59;;;;;;;2.13;0.30;;;27.20;99.90;;;;;;5058482;28;20204;-72
2021/07/15 06:53:24;;;;;;;0.20;0.20;;;26.10;99.90;;;;;;5058396;28;20168;-72
2021/07/15 06:55:51;;;;;;;1.13;0.75;;;26.80;99.90;;;;;;5070615;28;20194;-72
2021/07/15 06:58:17;;;;;;;1.73;1.25;;;27.60;99.90;;;;;;5068153;28;20161;-71
2021/07/15 07:00:44;;;;;;;0.20;0.20;;;28.80;99.90;;;;;;5050035;28;20318;-71
2021/07/15 07:03:12;;;;;;;0.20;0.20;;;29.00;99.90;;;;;;5058675;28;20193;-72
2021/07/15 07:05:39;;;;;;;0.30;0.30;;;30.10;99.90;;;;;;5067962;28;20199;-70
2021/07/15 07:08:06;;;;;;;0.20;0.20;;;31.30;99.90;;;;;;5068533;28;20282;-70
2021/07/15 07:10:32;;;;;;;0.15;0.15;;;31.10;99.90;;;;;;5082514;28;20203;-71
2021/07/15 07:12:58;;;;;;;0.35;0.35;;;29.60;99.90;;;;;;5087422;28;20186;-70
2021/07/15 07:15:24;;;;;;;1.00;0.63;;;28.40;99.90;;;;;;5087285;28;20271;-70
2021/07/15 07:17:51;;;;;;;0.15;0.15;;;27.60;99.90;;;;;;5087147;28;20179;-71
2021/07/15 07:20:18;;;;;;;0.10;0.10;;;27.90;99.90;;;;;;5070420;28;20187;-71
2021/07/15 07:22:45;;;;;;;0.75;0.40;;;28.90;99.90;;;;;;5082840;28;20221;-72
2021/07/15 07:25:12;;;;;;;0.22;0.22;;;29.30;99.90;;;;;;5060344;28;20226;-72
2021/07/15 07:27:38;;;;;;;0.45;0.45;;;29.70;99.90;;;;;;5071709;28;20191;-71
2021/07/15 07:30:07;;;;;;;3.15;0.38;;;29.80;99.90;;;;;;5053619;28;20207;-72
2021/07/15 07:32:33;;;;;;;0.03;0.03;;;29.90;99.90;;;;;;5071103;28;20196;-72
2021/07/15 07:34:59;;;;;;;0.20;0.20;;;29.90;99.90;;;;;;5071411;28;20237;-72
2021/07/15 07:37:25;;;;;;;0.30;0.30;;;30.20;99.90;;;;;;5078614;28;20175;-72
2021/07/15 07:39:51;;;;;;;0.65;0.20;;;30.60;99.90;;;;;;5091240;28;20183;-72
2021/07/15 07:42:17;;;;;;;0.50;0.30;;;31.70;99.90;;;;;;5090914;28;20183;-72
2021/07/15 07:44:43;;;;;;;1.00;0.30;;;32.90;99.90;;;;;;5091137;28;20218;-72
2021/07/15 07:47:09;;;;;;;0.40;0.30;;;32.20;99.90;;;;;;5073401;28;20210;-72
2021/07/15 07:49:35;;;;;;;0.28;0.28;;;30.40;99.90;;;;;;5075746;28;20234;-73
2021/07/15 07:52:02;;;;;;;0.30;0.28;;;28.70;99.90;;;;;;5072449;28;20180;-72
2021/07/15 07:54:28;;;;;;;3.30;1.10;;;28.20;99.90;;;;;;5069583;28;20180;-72
2021/07/15 07:56:54;;;;;;;0.90;0.45;;;28.60;99.90;;;;;;5073227;28;20191;-71
2021/07/15 07:59:21;;;;;;;0.30;0.30;;;28.40;99.90;;;;;;5069109;28;20211;-71
2021/07/15 08:01:47;;;;;;;0.17;0.10;;;28.70;99.90;;;;;;5053627;28;20179;-70
2021/07/15 08:04:13;;;;;;;0.35;0.35;;;29.70;99.90;;;;;;5071919;28;20191;-71
2021/07/15 08:06:41;;;;;;;0.50;0.50;;;30.50;99.90;;;;;;5090421;28;20210;-71
2021/07/15 08:09:12;;;;;;;0.22;0.22;;;30.60;99.90;;;;;;5090613;28;20206;-73
2021/07/15 08:11:38;;;;;;;0.20;0.20;;;31.30;99.90;;;;;;5090462;28;20299;-72
2021/07/15 08:14:05;;;;;;;0.45;0.32;;;31.70;99.90;;;;;;5072124;28;20203;-72
2021/07/15 08:16:31;;;;;;;0.40;0.40;;;30.80;99.90;;;;;;5092442;28;20180;-72
2021/07/15 08:18:57;;;;;;;0.28;0.28;;;28.30;99.90;;;;;;5099816;28;20217;-72
2021/07/15 08:21:26;;;;;;;0.55;0.40;;;28.40;99.90;;;;;;5089673;28;20199;-70
2021/07/15 08:23:53;;;;;;;0.00;0.00;;;28.60;99.90;;;;;;5084233;28;20186;-71
2021/07/15 08:26:19;;;;;;;0.52;0.52;;;28.80;99.90;;;;;;5090479;28;20246;-69
2021/07/15 08:28:46;;;;;;;0.32;0.32;;;29.10;99.90;;;;;;5089793;28;20159;-69
2021/07/15 08:31:12;;;;;;;0.43;0.40;;;28.30;99.90;;;;;;5089233;28;20203;-69
2021/07/15 08:33:37;;;;;;;0.10;0.10;;;28.70;99.90;;;;;;5090460;28;20155;-70
2021/07/15 08:36:04;;;;;;;0.03;0.03;;;29.50;99.90;;;;;;5090087;28;20159;-69
2021/07/15 08:38:29;;;;;;;0.32;0.30;;;28.90;99.90;;;;;;5090335;28;20166;-70
2021/07/15 08:40:55;;;;;;;0.13;0.13;;;29.30;99.90;;;;;;5090153;28;20164;-70
2021/07/15 08:43:22;;;;;;;2.25;1.10;;;30.50;99.90;;;;;;5090436;28;20177;-70
2021/07/15 08:45:51;;;;;;;4.20;1.80;;;31.60;99.90;;;;;;5088820;28;20562;-69
2021/07/15 08:48:19;;;;;;;0.50;0.45;;;32.40;99.90;;;;;;5090523;28;20175;-73
2021/07/15 08:50:46;;;;;;;0.40;0.40;;;31.30;99.90;;;;;;5072099;28;20192;-72
2021/07/15 08:53:15;;;;;;;0.47;0.47;;;30.00;99.90;;;;;;5090407;28;20178;-70
2021/07/15 08:56:36;;;;;;;3.30;0.50;;;29.50;99.90;;;;;;5090471;28;20156;-72
2021/07/15 08:58:27;;;;;;;0.30;0.25;;;28.10;99.90;;;;;;5089901;28;20201;-69
2021/07/15 09:00:55;;;;;;;0.30;0.30;;;28.20;99.90;;;;;;5054822;28;20618;-69
2021/07/15 09:03:23;;;;;;;1.35;0.43;;;28.40;99.90;;;;;;5071910;28;20179;-70
2021/07/15 09:05:49;;;;;;;0.10;0.10;;;29.20;99.90;;;;;;5072059;28;20167;-69
2021/07/15 09:08:15;;;;;;;0.28;0.28;;;30.00;99.90;;;;;;5071979;28;20223;-69
2021/07/15 09:10:41;;;;;;;0.28;0.28;;;30.50;99.90;;;;;;5071931;28;20207;-66
2021/07/15 09:13:07;;;;;;;0.55;0.38;;;30.80;99.90;;;;;;5090004;28;20164;-69
2021/07/15 09:15:33;;;;;;;0.10;0.10;;;31.10;99.90;;;;;;5071963;28;20242;-69
2021/07/15 09:17:59;;;;;;;0.15;0.15;;;30.90;99.90;;;;;;5071935;28;20167;-67
2021/07/15 09:20:29;;;;;;;0.10;0.10;;;30.60;99.90;;;;;;5089735;28;20259;-68
2021/07/15 09:22:59;;;;;;;0.10;0.10;;;31.10;99.90;;;;;;5071462;28;20202;-67
2021/07/15 09:25:46;;;;;;;1.35;0.25;;;31.60;99.90;;;;;;5089856;28;20148;-68
2021/07/15 09:28:17;;;;;;;0.17;0.17;;;32.70;99.90;;;;;;5071118;28;20175;-69
2021/07/15 09:30:44;;;;;;;0.10;0.10;;;31.20;99.90;;;;;;5071435;28;20191;-69
2021/07/15 09:33:14;;;;;;;0.38;0.38;;;31.60;99.90;;;;;;5071567;28;20270;-68
2021/07/15 09:35:46;;;;;;;0.10;0.10;;;32.30;99.90;;;;;;5083629;28;20222;-68
2021/07/15 09:38:21;;;;;;;0.20;0.20;;;30.20;99.90;;;;;;5069328;28;20293;-69
2021/07/15 09:40:55;;;;;;;0.50;0.30;;;30.00;99.90;;;;;;5077513;28;20314;-68
2021/07/15 09:43:29;;;;;;;0.63;0.63;;;29.40;99.90;;;;;;5109127;28;20210;-68
2021/07/15 09:45:58;;;;;;;0.20;0.20;;;28.40;99.90;;;;;;5090809;28;20263;-70
2021/07/15 09:48:29;;;;;;;0.10;0.10;;;27.00;99.90;;;;;;5104548;28;20180;-74
2021/07/15 09:50:59;;;;;;;10.63;0.40;;;26.40;99.90;;;;;;5088120;28;20203;-73
2021/07/15 09:53:31;;;;;;;0.15;0.15;;;27.70;99.90;;;;;;5070013;28;20237;-73
2021/07/15 09:55:58;;;;;;;1.35;0.80;;;29.60;99.90;;;;;;5085599;28;20164;-71
2021/07/15 09:58:24;;;;;;;0.55;0.20;;;29.90;99.90;;;;;;5088671;28;20156;-72
2021/07/15 10:00:51;;;;;;;0.10;0.10;;;30.70;99.90;;;;;;5071393;28;20164;-72
2021/07/15 10:03:18;;;;;;;0.20;0.20;;;29.70;99.90;;;;;;5088855;28;20191;-71
2021/07/15 10:05:52;;;;;;;1.25;0.38;;;30.00;99.90;;;;;;5088815;28;20159;-70
2021/07/15 10:08:29;;;;;;;0.20;0.20;;;30.10;99.90;;;;;;5087555;28;20171;-72
2021/07/15 10:11:12;;;;;;;3.92;0.40;;;31.20;99.90;;;;;;5082098;28;20218;-68
2021/07/15 10:13:39;;;;;;;0.20;0.20;;;31.30;99.90;;;;;;5087010;28;20238;-69
2021/07/15 10:16:07;;;;;;;0.45;0.45;;;32.30;99.90;;;;;;5070085;28;20195;-67
2021/07/15 10:18:35;;;;;;;0.52;0.47;;;32.70;99.90;;;;;;5088539;28;20167;-69
2021/07/15 10:21:02;;;;;;;0.20;0.20;;;32.60;99.90;;;;;;5088482;28;20221;-69
2021/07/15 10:23:38;;;;;;;0.20;0.13;;;29.20;99.90;;;;;;5070440;28;20163;-69
2021/07/15 10:26:06;;;;;;;0.30;0.30;;;29.90;99.90;;;;;;5069534;28;20191;-68
2021/07/15 10:28:32;;;;;;;0.77;0.43;;;31.60;99.90;;;;;;5058753;28;20175;-69
2021/07/15 10:31:04;;;;;;;0.10;0.10;;;31.70;99.90;;;;;;5088365;28;20211;-69
2021/07/15 10:33:31;;;;;;;0.20;0.20;;;31.10;99.90;;;;;;5088478;28;20223;-69
2021/07/15 10:36:02;;;;;;;0.00;0.00;;;31.10;99.90;;;;;;5070218;28;20195;-69
2021/07/15 10:38:30;;;;;;;0.10;0.10;;;30.60;99.90;;;;;;5088399;28;20156;-69
2021/07/15 10:40:58;;;;;;;0.30;0.20;;;32.00;99.90;;;;;;5088726;28;20159;-69
2021/07/15 10:43:25;;;;;;;0.35;0.35;;;33.00;99.90;;;;;;5070163;28;20246;-69
2021/07/15 10:45:54;;;;;;;0.03;0.03;;;32.50;99.90;;;;;;5053690;28;20255;-69
2021/07/15 10:48:21;;;;;;;0.10;0.10;;;31.90;99.20;;;;;;5048582;28;20179;-69
2021/07/15 10:50:47;;;;;;;0.95;0.45;;;31.40;99.90;;;;;;5048386;28;20189;-69
2021/07/15 10:53:14;;;;;;;0.10;0.10;;;29.80;99.90;;;;;;5048534;28;20172;-69
2021/07/15 10:55:41;;;;;;;0.47;0.47;;;29.80;99.90;;;;;;5050017;28;20207;-69
2021/07/15 10:58:07;;;;;;;0.40;0.40;;;29.40;99.90;;;;;;5051042;28;20242;-70
2021/07/15 11:00:33;;;;;;;1.23;0.95;;;29.20;99.90;;;;;;5050825;28;20268;-69
2021/07/15 11:03:09;;;;;;;1.85;0.60;;;29.00;99.90;;;;;;5050725;28;20173;-69
2021/07/15 11:05:54;;;;;;;0.28;0.28;;;28.30;99.90;;;;;;5052248;28;20689;-69
2021/07/15 11:08:40;;;;;;;0.05;0.05;;;28.30;99.90;;;;;;5052121;28;20187;-68
2021/07/15 11:11:05;;;;;;;0.10;0.10;;;27.80;99.90;;;;;;5039396;28;20216;-69
2021/07/15 11:13:33;;;;;;;0.03;0.03;;;28.00;99.90;;;;;;5032058;28;20157;-69
2021/07/15 11:16:03;;;;;;;2.20;0.52;;;28.10;99.90;;;;;;5032054;28;20201;-69
2021/07/15 11:18:46;;;;;;;0.00;0.00;;;27.90;99.90;;;;;;5051416;28;20252;-69
2021/07/15 11:21:28;;;;;;;0.40;0.40;;;27.80;99.90;;;;;;5032025;28;20154;-69
2021/07/15 11:24:14;;;;;;;0.32;0.32;;;27.20;99.90;;;;;;5031858;28;20164;-69
2021/07/15 11:26:41;;;;;;;0.30;0.30;;;27.20;99.90;;;;;;5031751;28;20191;-69
2021/07/15 11:29:12;;;;;;;0.10;0.10;;;27.70;99.90;;;;;;5030497;28;20177;-69
2021/07/15 11:31:42;;;;;;;0.28;0.20;;;28.20;99.90;;;;;;5031965;28;20194;-69
2021/07/15 11:34:08;;;;;;;0.30;0.30;;;27.80;99.90;;;;;;5031859;28;20169;-69
2021/07/15 11:36:35;;;;;;;0.77;0.77;;;27.20;99.90;;;;;;5032075;28;20569;-68
2021/07/15 11:39:07;;;;;;;0.20;0.20;;;26.50;99.90;;;;;;5031742;28;20150;-69
2021/07/15 11:41:50;;;;;;;3.58;0.30;;;26.40;99.90;;;;;;5031890;28;20162;-69
2021/07/15 11:44:18;;;;;;;0.30;0.30;;;26.10;99.90;;;;;;5035457;28;20177;-68
2021/07/15 11:46:45;;;;;;;0.90;0.60;;;26.00;99.90;;;;;;5071517;28;20168;-68
2021/07/15 11:49:23;;;;;;;0.10;0.10;;;26.40;99.90;;;;;;5070102;28;20176;-68
2021/07/15 11:51:52;;;;;;;1.65;0.80;;;27.00;99.90;;;;;;5071319;28;20250;-69
2021/07/15 11:54:43;;;;;;;7.88;0.85;;;27.40;99.90;;;;;;5071493;28;20227;-69
2021/07/15 11:57:12;;;;;;;0.10;0.10;;;27.80;99.90;;;;;;5071286;28;20226;-68
2021/07/15 11:59:46;;;;;;;0.63;0.63;;;27.80;99.90;;;;;;5071312;28;20183;-69
2021/07/15 12:02:39;;;;;;;0.40;0.35;;;27.70;99.90;;;;;;5071099;28;20172;-69
2021/07/15 12:05:12;;;;;;;0.10;0.10;;;27.50;99.90;;;;;;5069647;28;20207;-69
2021/07/15 12:07:47;;;;;;;0.00;0.00;;;27.50;99.90;;;;;;5069905;28;20183;-69
2021/07/15 12:10:19;;;;;;;0.10;0.10;;;27.80;99.90;;;;;;5069649;28;20232;-69
2021/07/15 12:12:46;;;;;;;0.43;0.17;;;27.90;99.90;;;;;;5050969;28;20157;-69
2021/07/15 12:15:19;;;;;;;0.17;0.13;;;27.80;99.90;;;;;;5049228;28;20279;-69
2021/07/15 12:17:51;;;;;;;0.15;0.15;;;28.00;99.90;;;;;;5058029;28;20166;-68
2021/07/15 12:20:19;;;;;;;0.32;0.22;;;28.30;99.90;;;;;;5076777;28;20179;-69
2021/07/15 12:22:56;;;;;;;0.15;0.15;;;28.90;99.90;;;;;;5070854;28;20696;-69
2021/07/15 12:25:24;;;;;;;0.47;0.47;;;29.00;99.90;;;;;;5070620;28;20199;-69
2021/07/15 12:27:53;;;;;;;1.23;0.30;;;28.80;99.90;;;;;;5070643;28;20160;-68
2021/07/15 12:30:21;;;;;;;0.05;0.05;;;28.50;99.90;;;;;;5070573;28;20188;-69
2021/07/15 12:33:15;;;;;;;0.20;0.20;;;28.50;99.90;;;;;;5070664;28;20156;-68
2021/07/15 12:35:42;;;;;;;0.05;0.05;;;28.40;99.90;;;;;;5066998;28;20226;-69
2021/07/15 12:38:31;;;;;;;0.32;0.32;;;28.70;99.90;;;;;;5068935;28;20164;-69
2021/07/15 12:41:14;;;;;;;0.65;0.47;;;28.70;99.90;;;;;;5070582;28;20156;-69
2021/07/15 12:43:48;;;;;;;0.20;0.20;;;28.20;99.90;;;;;;5070527;28;20168;-68
2021/07/15 12:46:18;;;;;;;0.22;0.20;;;28.20;99.90;;;;;;5086229;28;20223;-68
2021/07/15 12:48:50;;;;;;;0.20;0.20;;;27.90;99.90;;;;;;5090327;28;20498;-68
2021/07/15 12:51:18;;;;;;;0.10;0.10;;;27.80;99.90;;;;;;5071889;28;20195;-69
2021/07/15 12:53:48;;;;;;;0.20;0.20;;;27.60;99.90;;;;;;5090124;28;20151;-69
2021/07/15 12:56:22;;;;;;;0.82;0.80;;;27.20;99.90;;;;;;5090112;28;20191;-68
2021/07/15 12:59:00;;;;;;;0.25;0.25;;;27.60;99.90;;;;;;5090015;28;20155;-69